createdAt,value
2022-11-25T00:00:23.017Z,4
2022-11-25T00:01:23.015Z,4
2022-11-25T00:02:23.197Z,4
2022-11-25T00:03:23.183Z,4
2022-11-25T00:04:23.113Z,4
2022-11-25T00:05:23.039Z,4
2022-11-25T00:06:23.017Z,4
2022-11-25T00:07:23.087Z,5
2022-11-25T00:08:23.054Z,4
2022-11-25T00:09:23.042Z,4
2022-11-25T00:10:23.023Z,4
2022-11-25T00:11:23.104Z,4
2022-11-25T00:12:23.029Z,4
2022-11-25T00:13:23.046Z,4
2022-11-25T00:14:23.030Z,5
2022-11-25T00:15:23.063Z,4
2022-11-25T00:16:23.105Z,4
2022-11-25T00:17:23.030Z,4
2022-11-25T00:18:23.115Z,4
2022-11-25T00:19:23.128Z,4
2022-11-25T00:20:23.032Z,4
2022-11-25T00:21:23.109Z,4
2022-11-25T00:22:23.019Z,4
2022-11-25T00:23:23.081Z,4
2022-11-25T00:24:23.128Z,4
2022-11-25T00:25:23.033Z,4
2022-11-25T00:26:23.085Z,4
2022-11-25T00:27:23.146Z,4
2022-11-25T00:28:23.035Z,5
2022-11-25T00:29:23.031Z,4
2022-11-25T00:30:23.018Z,4
2022-11-25T00:31:23.072Z,5
2022-11-25T00:32:23.019Z,4
2022-11-25T00:33:23.032Z,4
2022-11-25T00:34:23.104Z,4
2022-11-25T00:35:23.028Z,4
2022-11-25T00:36:23.026Z,4
2022-11-25T00:37:23.032Z,5
2022-11-25T00:38:23.123Z,5
2022-11-25T00:39:23.026Z,5
2022-11-25T00:40:23.025Z,5
2022-11-25T00:41:23.104Z,4
2022-11-25T00:42:23.127Z,5
2022-11-25T00:43:23.041Z,4
2022-11-25T00:44:23.020Z,4
2022-11-25T00:45:23.078Z,4
2022-11-25T00:46:23.050Z,4
2022-11-25T00:47:23.026Z,4
2022-11-25T00:48:23.040Z,4
2022-11-25T00:49:23.102Z,5
2022-11-25T00:50:23.125Z,4
2022-11-25T00:51:23.031Z,5
2022-11-25T00:52:23.015Z,4
2022-11-25T00:53:23.030Z,5
2022-11-25T00:54:23.013Z,4
2022-11-25T00:55:23.025Z,4
2022-11-25T00:56:23.018Z,5
2022-11-25T00:57:23.081Z,4
2022-11-25T00:58:23.099Z,4
2022-11-25T00:59:23.085Z,4
2022-11-25T01:00:23.144Z,4
2022-11-25T01:01:23.266Z,5
2022-11-25T01:02:23.227Z,4
2022-11-25T01:03:23.167Z,4
2022-11-25T01:04:23.265Z,4
2022-11-25T01:05:23.303Z,4
2022-11-25T01:06:23.266Z,5
2022-11-25T01:07:23.282Z,4
2022-11-25T01:08:23.302Z,4
2022-11-25T01:09:23.354Z,4
2022-11-25T01:10:23.032Z,4
2022-11-25T01:11:23.015Z,4
2022-11-25T01:12:23.328Z,4
2022-11-25T01:13:23.296Z,4
2022-11-25T01:14:23.012Z,4
2022-11-25T01:15:23.037Z,4
2022-11-25T01:16:23.087Z,5
2022-11-25T01:17:23.089Z,4
2022-11-25T01:18:23.029Z,4
2022-11-25T01:19:23.016Z,5
2022-11-25T01:20:23.080Z,4
2022-11-25T01:21:23.059Z,4
2022-11-25T01:22:23.021Z,4
2022-11-25T01:23:23.015Z,5
2022-11-25T01:24:24.063Z,4
2022-11-25T01:25:23.032Z,4
2022-11-25T01:26:23.024Z,4
2022-11-25T01:27:23.124Z,4
2022-11-25T01:28:23.127Z,5
2022-11-25T01:29:23.030Z,4
2022-11-25T01:30:23.028Z,4
2022-11-25T01:31:23.064Z,4
2022-11-25T01:32:23.041Z,4
2022-11-25T01:33:23.033Z,4
2022-11-25T01:34:23.045Z,4
2022-11-25T01:35:23.094Z,5
2022-11-25T01:36:23.123Z,5
2022-11-25T01:37:23.013Z,4
2022-11-25T01:38:23.024Z,4
2022-11-25T01:39:28.398Z,4
2022-11-25T01:40:23.015Z,4
2022-11-25T01:41:23.012Z,4
2022-11-25T01:42:23.015Z,4
2022-11-25T01:43:23.095Z,4
2022-11-25T01:44:23.032Z,4
2022-11-25T01:45:24.614Z,5
2022-11-25T01:46:23.084Z,5
2022-11-25T01:47:23.112Z,4
2022-11-25T01:48:23.042Z,4
2022-11-25T01:49:23.025Z,4
2022-11-25T01:50:23.123Z,4
2022-11-25T01:51:23.086Z,4
2022-11-25T01:52:23.022Z,4
2022-11-25T01:53:23.009Z,4
2022-11-25T01:54:23.017Z,4
2022-11-25T01:55:23.023Z,4
2022-11-25T01:56:23.010Z,5
2022-11-25T01:57:23.014Z,4
2022-11-25T01:58:23.090Z,4
2022-11-25T01:59:23.122Z,4
2022-11-25T02:00:23.016Z,4
2022-11-25T02:01:23.033Z,4
2022-11-25T02:02:23.060Z,3
2022-11-25T02:03:23.047Z,4
2022-11-25T02:04:23.009Z,4
2022-11-25T02:05:23.015Z,4
2022-11-25T02:06:23.111Z,4
2022-11-25T02:07:23.053Z,4
2022-11-25T02:08:23.020Z,4
2022-11-25T02:09:23.025Z,4
2022-11-25T02:10:23.021Z,4
2022-11-25T02:11:23.039Z,4
2022-11-25T02:12:23.017Z,4
2022-11-25T02:13:23.120Z,4
2022-11-25T02:14:23.119Z,4
2022-11-25T02:15:23.023Z,3
2022-11-25T02:16:23.108Z,5
2022-11-25T02:17:23.021Z,4
2022-11-25T02:18:23.051Z,4
2022-11-25T02:19:23.172Z,5
2022-11-25T02:20:23.048Z,4
2022-11-25T02:21:23.102Z,4
2022-11-25T02:22:23.128Z,4
2022-11-25T02:23:23.014Z,4
2022-11-25T02:24:23.013Z,4
2022-11-25T02:25:23.023Z,4
2022-11-25T02:26:23.046Z,4
2022-11-25T02:27:23.038Z,4
2022-11-25T02:28:23.017Z,4
2022-11-25T02:29:23.094Z,4
2022-11-25T02:30:23.018Z,4
2022-11-25T02:31:23.075Z,4
2022-11-25T02:32:23.008Z,4
2022-11-25T02:33:23.024Z,4
2022-11-25T02:34:23.009Z,4
2022-11-25T02:35:23.029Z,4
2022-11-25T02:36:23.118Z,4
2022-11-25T02:37:23.127Z,4
2022-11-25T02:38:23.018Z,4
2022-11-25T02:39:23.083Z,4
2022-11-25T02:40:23.020Z,4
2022-11-25T02:41:23.013Z,4
2022-11-25T02:42:23.091Z,4
2022-11-25T02:43:23.017Z,4
2022-11-25T02:44:23.079Z,4
2022-11-25T02:45:23.145Z,4
2022-11-25T02:46:23.091Z,4
2022-11-25T02:47:23.014Z,4
2022-11-25T02:48:39.781Z,4
2022-11-25T02:49:23.008Z,4
2022-11-25T02:50:23.043Z,4
2022-11-25T02:51:23.017Z,4
2022-11-25T02:52:23.091Z,4
2022-11-25T02:53:23.036Z,4
2022-11-25T02:54:23.019Z,4
2022-11-25T02:55:23.016Z,4
2022-11-25T02:56:23.018Z,4
2022-11-25T02:57:23.095Z,5
2022-11-25T02:58:23.006Z,3
2022-11-25T02:59:23.088Z,3
2022-11-25T03:00:23.166Z,4
2022-11-25T03:01:23.140Z,4
2022-11-25T03:02:23.075Z,4
2022-11-25T03:03:23.016Z,4
2022-11-25T03:04:23.008Z,4
2022-11-25T03:05:23.018Z,3
2022-11-25T03:06:23.006Z,4
2022-11-25T03:07:23.194Z,4
2022-11-25T03:08:23.013Z,4
2022-11-25T03:09:23.027Z,4
2022-11-25T03:10:23.023Z,3
2022-11-25T03:11:23.119Z,4
2022-11-25T03:12:23.038Z,4
2022-11-25T03:13:23.012Z,4
2022-11-25T03:14:23.098Z,4
2022-11-25T03:15:23.118Z,4
2022-11-25T03:16:23.053Z,4
2022-11-25T03:17:23.052Z,4
2022-11-25T03:18:23.035Z,4
2022-11-25T03:19:23.021Z,4
2022-11-25T03:20:23.021Z,3
2022-11-25T03:21:23.051Z,4
2022-11-25T03:22:23.105Z,4
2022-11-25T03:23:23.113Z,4
2022-11-25T03:24:23.012Z,4
2022-11-25T03:25:23.013Z,4
2022-11-25T03:26:23.017Z,4
2022-11-25T03:27:23.021Z,4
2022-11-25T03:28:23.023Z,4
2022-11-25T03:29:23.017Z,4
2022-11-25T03:30:23.118Z,4
2022-11-25T03:31:23.062Z,4
2022-11-25T03:32:23.025Z,4
2022-11-25T03:33:23.012Z,4
2022-11-25T03:34:23.020Z,4
2022-11-25T03:35:23.019Z,4
2022-11-25T03:36:23.028Z,4
2022-11-25T03:37:23.164Z,3
2022-11-25T03:38:23.118Z,4
2022-11-25T03:39:23.047Z,4
2022-11-25T03:40:23.139Z,4
2022-11-25T03:41:23.033Z,4
2022-11-25T03:42:23.016Z,4
2022-11-25T03:43:23.017Z,4
2022-11-25T03:44:23.029Z,4
2022-11-25T03:45:23.091Z,4
2022-11-25T03:46:23.218Z,4
2022-11-25T03:47:23.001Z,4
2022-11-25T03:48:23.009Z,4
2022-11-25T03:49:23.027Z,4
2022-11-25T03:50:23.028Z,3
2022-11-25T03:51:23.017Z,4
2022-11-25T03:52:23.057Z,4
2022-11-25T03:53:23.108Z,4
2022-11-25T03:54:23.012Z,4
2022-11-25T03:55:23.009Z,4
2022-11-25T03:56:23.029Z,4
2022-11-25T03:57:23.021Z,4
2022-11-25T03:58:23.016Z,4
2022-11-25T03:59:23.022Z,4
2022-11-25T04:00:23.081Z,4
2022-11-25T04:01:23.162Z,4
2022-11-25T04:02:23.050Z,4
2022-11-25T04:03:23.021Z,3
2022-11-25T04:04:23.005Z,4
2022-11-25T04:05:23.031Z,4
2022-11-25T04:06:23.112Z,3
2022-11-25T04:07:23.112Z,4
2022-11-25T04:08:23.078Z,4
2022-11-25T04:09:23.108Z,4
2022-11-25T04:10:23.021Z,4
2022-11-25T04:11:23.075Z,4
2022-11-25T04:12:23.093Z,4
2022-11-25T04:13:23.030Z,4
2022-11-25T04:14:23.010Z,4
2022-11-25T04:15:23.015Z,4
2022-11-25T04:16:23.178Z,4
2022-11-25T04:17:23.023Z,4
2022-11-25T04:18:23.013Z,4
2022-11-25T04:19:23.033Z,4
2022-11-25T04:20:23.027Z,4
2022-11-25T04:21:23.012Z,4
2022-11-25T04:22:23.016Z,4
2022-11-25T04:23:23.132Z,4
2022-11-25T04:24:23.122Z,4
2022-11-25T04:25:23.008Z,4
2022-11-25T04:26:23.023Z,3
2022-11-25T04:27:23.010Z,3
2022-11-25T04:28:23.026Z,3
2022-11-25T04:29:23.023Z,4
2022-11-25T04:30:23.021Z,3
2022-11-25T04:31:23.086Z,4
2022-11-25T04:32:23.014Z,4
2022-11-25T04:33:23.010Z,3
2022-11-25T04:34:23.027Z,4
2022-11-25T04:35:23.012Z,4
2022-11-25T04:36:23.019Z,4
2022-11-25T04:37:23.018Z,4
2022-11-25T04:38:23.114Z,3
2022-11-25T04:39:23.123Z,4
2022-11-25T04:40:23.027Z,4
2022-11-25T04:41:23.074Z,4
2022-11-25T04:42:23.001Z,4
2022-11-25T04:43:22.998Z,4
2022-11-25T04:44:23.096Z,4
2022-11-25T04:45:24.044Z,3
2022-11-25T04:46:23.124Z,4
2022-11-25T04:47:23.119Z,4
2022-11-25T04:48:23.019Z,4
2022-11-25T04:49:23.032Z,4
2022-11-25T04:50:23.054Z,4
2022-11-25T04:51:23.031Z,3
2022-11-25T04:52:23.122Z,4
2022-11-25T04:53:23.021Z,4
2022-11-25T04:54:23.147Z,3
2022-11-25T04:55:23.010Z,4
2022-11-25T04:56:23.036Z,4
2022-11-25T04:57:23.017Z,3
2022-11-25T04:58:23.014Z,4
2022-11-25T04:59:23.028Z,4
2022-11-25T05:00:23.009Z,4
2022-11-25T05:01:23.115Z,4
2022-11-25T05:02:23.153Z,4
2022-11-25T05:03:23.028Z,4
2022-11-25T05:04:23.014Z,4
2022-11-25T05:05:23.023Z,4
2022-11-25T05:06:23.011Z,4
2022-11-25T05:07:23.125Z,4
2022-11-25T05:08:23.014Z,4
2022-11-25T05:09:23.071Z,4
2022-11-25T05:10:23.014Z,4
2022-11-25T05:11:23.000Z,4
2022-11-25T05:12:23.022Z,4
2022-11-25T05:13:23.094Z,4
2022-11-25T05:14:23.021Z,4
2022-11-25T05:15:23.001Z,4
2022-11-25T05:16:23.167Z,4
2022-11-25T05:17:23.106Z,4
2022-11-25T05:18:23.004Z,4
2022-11-25T05:19:23.086Z,4
2022-11-25T05:20:23.012Z,4
2022-11-25T05:21:23.007Z,4
2022-11-25T05:22:23.122Z,4
2022-11-25T05:23:23.006Z,5
2022-11-25T05:24:23.088Z,5
2022-11-25T05:25:23.132Z,5
2022-11-25T05:26:23.015Z,5
2022-11-25T05:27:23.021Z,4
2022-11-25T05:28:23.018Z,4
2022-11-25T05:29:23.008Z,4
2022-11-25T05:30:23.016Z,5
2022-11-25T05:31:23.011Z,5
2022-11-25T05:32:23.084Z,4
2022-11-25T05:33:23.025Z,4
2022-11-25T05:34:23.017Z,4
2022-11-25T05:35:23.009Z,4
2022-11-25T05:36:23.010Z,4
2022-11-25T05:37:24.660Z,4
2022-11-25T05:38:23.012Z,4
2022-11-25T05:39:23.075Z,4
2022-11-25T05:40:23.117Z,4
2022-11-25T05:41:23.014Z,4
2022-11-25T05:42:23.092Z,4
2022-11-25T05:43:23.003Z,4
2022-11-25T05:44:23.321Z,5
2022-11-25T05:45:23.074Z,4
2022-11-25T05:46:23.057Z,4
2022-11-25T05:47:23.100Z,4
2022-11-25T05:48:23.115Z,5
2022-11-25T05:49:23.007Z,5
2022-11-25T05:50:23.010Z,4
2022-11-25T05:51:23.091Z,4
2022-11-25T05:52:23.002Z,5
2022-11-25T05:53:23.017Z,5
2022-11-25T05:54:23.008Z,5
2022-11-25T05:55:23.109Z,5
2022-11-25T05:56:23.044Z,4
2022-11-25T05:57:23.014Z,4
2022-11-25T05:58:23.015Z,4
2022-11-25T05:59:23.013Z,4
2022-11-25T06:00:26.564Z,4
2022-11-25T06:01:22.997Z,5
2022-11-25T06:02:23.158Z,4
2022-11-25T06:03:23.144Z,4
2022-11-25T06:04:23.018Z,4
2022-11-25T06:05:23.015Z,4
2022-11-25T06:06:23.025Z,4
2022-11-25T06:07:23.082Z,4
2022-11-25T06:08:23.000Z,4
2022-11-25T06:09:23.010Z,4
2022-11-25T06:10:23.090Z,4
2022-11-25T06:11:23.012Z,4
2022-11-25T06:12:23.002Z,4
2022-11-25T06:13:23.001Z,4
2022-11-25T06:14:23.099Z,4
2022-11-25T06:15:23.018Z,4
2022-11-25T06:16:23.072Z,4
2022-11-25T06:17:23.104Z,4
2022-11-25T06:18:23.102Z,4
2022-11-25T06:19:23.013Z,5
2022-11-25T06:20:23.000Z,4
2022-11-25T06:21:23.002Z,5
2022-11-25T06:22:23.012Z,5
2022-11-25T06:23:23.095Z,4
2022-11-25T06:24:23.006Z,5
2022-11-25T06:25:23.080Z,5
2022-11-25T06:26:23.111Z,4
2022-11-25T06:27:23.042Z,5
2022-11-25T06:28:23.122Z,7
2022-11-25T06:29:23.020Z,7
2022-11-25T06:30:23.059Z,7
2022-11-25T06:31:23.059Z,6
2022-11-25T06:32:23.044Z,5
2022-11-25T06:33:23.072Z,5
2022-11-25T06:34:23.053Z,6
2022-11-25T06:35:23.021Z,4
2022-11-25T06:36:23.042Z,4
2022-11-25T06:37:23.112Z,4
2022-11-25T06:38:23.064Z,4
2022-11-25T06:39:23.032Z,4
2022-11-25T06:40:23.097Z,4
2022-11-25T06:41:23.125Z,4
2022-11-25T06:42:23.015Z,5
2022-11-25T06:43:23.204Z,5
2022-11-25T06:44:23.004Z,4
2022-11-25T06:45:23.004Z,6
2022-11-25T06:46:25.426Z,4
2022-11-25T06:47:23.012Z,4
2022-11-25T06:48:23.341Z,5
2022-11-25T06:49:23.103Z,5
2022-11-25T06:50:23.048Z,5
2022-11-25T06:51:23.071Z,7
2022-11-25T06:52:23.039Z,5
2022-11-25T06:53:24.214Z,6
2022-11-25T06:54:23.057Z,5
2022-11-25T06:55:23.007Z,5
2022-11-25T06:56:23.144Z,5
2022-11-25T06:57:23.035Z,6
2022-11-25T06:58:35.371Z,6
2022-11-25T06:59:23.029Z,4
2022-11-25T07:00:23.010Z,4
2022-11-25T07:01:23.114Z,4
2022-11-25T07:02:23.057Z,4
2022-11-25T07:03:23.362Z,5
2022-11-25T07:04:23.129Z,5
2022-11-25T07:05:23.017Z,4
2022-11-25T07:06:23.084Z,4
2022-11-25T07:07:23.039Z,4
2022-11-25T07:08:23.029Z,4
2022-11-25T07:09:23.021Z,4
2022-11-25T07:10:23.018Z,4
2022-11-25T07:11:23.124Z,4
2022-11-25T07:12:23.109Z,4
2022-11-25T07:13:23.026Z,4
2022-11-25T07:14:23.003Z,5
2022-11-25T07:15:23.022Z,5
2022-11-25T07:16:23.043Z,4
2022-11-25T07:17:23.022Z,5
2022-11-25T07:18:23.005Z,4
2022-11-25T07:19:23.112Z,4
2022-11-25T07:20:23.025Z,4
2022-11-25T07:21:23.018Z,3
2022-11-25T07:22:23.013Z,3
2022-11-25T07:23:23.030Z,4
2022-11-25T07:24:23.022Z,4
2022-11-25T07:25:26.576Z,5
2022-11-25T07:26:23.079Z,4
2022-11-25T07:27:23.116Z,5
2022-11-25T07:28:23.007Z,6
2022-11-25T07:29:50.383Z,6
2022-11-25T07:31:21.580Z,5
2022-11-25T07:31:25.093Z,4
2022-11-25T07:32:23.081Z,12
2022-11-25T07:33:23.046Z,10
2022-11-25T07:34:23.082Z,6
2022-11-25T07:35:23.116Z,6
2022-11-25T07:36:23.018Z,5
2022-11-25T07:37:23.024Z,5
2022-11-25T07:38:23.011Z,5
2022-11-25T07:39:23.001Z,5
2022-11-25T07:40:23.017Z,5
2022-11-25T07:41:23.022Z,4
2022-11-25T07:42:23.072Z,4
2022-11-25T07:43:23.010Z,4
2022-11-25T07:44:23.068Z,4
2022-11-25T07:45:23.005Z,4
2022-11-25T07:46:26.777Z,5
2022-11-25T07:47:23.001Z,5
2022-11-25T07:48:23.005Z,5
2022-11-25T07:49:23.076Z,5
2022-11-25T07:50:23.101Z,5
2022-11-25T07:51:23.015Z,5
2022-11-25T07:52:23.079Z,5
2022-11-25T07:53:23.016Z,6
2022-11-25T07:54:23.012Z,5
2022-11-25T07:55:23.100Z,6
2022-11-25T07:56:23.028Z,7
2022-11-25T07:57:23.082Z,7
2022-11-25T07:58:23.109Z,5
2022-11-25T07:59:23.030Z,6
2022-11-25T08:00:23.046Z,6
2022-11-25T08:01:23.039Z,8
2022-11-25T08:02:23.068Z,6
2022-11-25T08:03:23.078Z,7
2022-11-25T08:04:23.026Z,6
2022-11-25T08:05:23.105Z,7
2022-11-25T08:06:23.030Z,7
2022-11-25T08:07:23.075Z,6
2022-11-25T08:08:23.025Z,6
2022-11-25T08:09:23.023Z,6
2022-11-25T08:10:23.013Z,9
2022-11-25T08:11:23.009Z,8
2022-11-25T08:12:23.079Z,9
2022-11-25T08:13:23.107Z,8
2022-11-25T08:14:23.009Z,9
2022-11-25T08:15:23.010Z,7
2022-11-25T08:16:23.055Z,7
2022-11-25T08:17:23.019Z,7
2022-11-25T08:18:23.101Z,7
2022-11-25T08:19:27.085Z,9
2022-11-25T08:20:23.076Z,8
2022-11-25T08:21:23.102Z,8
2022-11-25T08:22:23.005Z,7
2022-11-25T08:23:23.019Z,7
2022-11-25T08:24:23.085Z,8
2022-11-25T08:25:23.003Z,7
2022-11-25T08:26:23.025Z,7
2022-11-25T08:27:23.088Z,7
2022-11-25T08:28:23.089Z,5
2022-11-25T08:29:23.028Z,6
2022-11-25T08:30:23.039Z,6
2022-11-25T08:31:23.133Z,6
2022-11-25T08:32:23.043Z,6
2022-11-25T08:33:23.042Z,4
2022-11-25T08:34:23.038Z,6
2022-11-25T08:35:23.087Z,6
2022-11-25T08:36:23.114Z,6
2022-11-25T08:37:23.037Z,6
2022-11-25T08:38:23.124Z,6
2022-11-25T08:39:51.804Z,6
2022-11-25T08:40:23.031Z,6
2022-11-25T08:41:23.107Z,5
2022-11-25T08:42:23.042Z,5
2022-11-25T08:43:29.074Z,6
2022-11-25T08:44:23.143Z,5
2022-11-25T08:45:23.006Z,5
2022-11-25T08:46:23.102Z,5
2022-11-25T08:47:23.083Z,5
2022-11-25T08:48:23.056Z,5
2022-11-25T08:49:23.032Z,7
2022-11-25T08:50:23.139Z,6
2022-11-25T08:51:23.117Z,5
2022-11-25T08:52:23.014Z,5
2022-11-25T08:53:23.008Z,5
2022-11-25T08:54:23.007Z,4
2022-11-25T08:55:23.047Z,4
2022-11-25T08:56:25.987Z,5
2022-11-25T08:57:23.008Z,5
2022-11-25T08:58:23.094Z,5
2022-11-25T08:59:23.142Z,4
2022-11-25T09:00:23.035Z,5
2022-11-25T09:01:23.040Z,4
2022-11-25T09:02:23.188Z,4
2022-11-25T09:03:23.074Z,5
2022-11-25T09:04:23.031Z,4
2022-11-25T09:05:22.992Z,5
2022-11-25T09:06:23.076Z,4
2022-11-25T09:07:27.530Z,4
2022-11-25T09:08:23.008Z,4
2022-11-25T09:09:23.010Z,4
2022-11-25T09:10:23.134Z,4
2022-11-25T09:11:23.141Z,5
2022-11-25T09:12:23.020Z,5
2022-11-25T09:13:23.103Z,5
2022-11-25T09:14:23.142Z,4
2022-11-25T09:15:23.011Z,5
2022-11-25T09:16:23.136Z,5
2022-11-25T09:17:23.026Z,6
2022-11-25T09:18:23.010Z,8
2022-11-25T09:19:23.017Z,7
2022-11-25T09:20:23.016Z,6
2022-11-25T09:21:23.097Z,6
2022-11-25T09:22:23.118Z,5
2022-11-25T09:23:23.017Z,4
2022-11-25T09:24:22.997Z,5
2022-11-25T09:25:23.011Z,4
2022-11-25T09:26:23.011Z,4
2022-11-25T09:27:23.011Z,4
2022-11-25T09:28:23.020Z,4
2022-11-25T09:29:23.074Z,4
2022-11-25T09:30:23.003Z,5
2022-11-25T09:31:23.050Z,4
2022-11-25T09:32:23.000Z,4
2022-11-25T09:33:23.119Z,4
2022-11-25T09:34:23.026Z,4
2022-11-25T09:35:23.013Z,3
2022-11-25T09:36:23.107Z,5
2022-11-25T09:37:23.105Z,4
2022-11-25T09:38:23.003Z,4
2022-11-25T09:39:23.078Z,4
2022-11-25T09:40:22.999Z,4
2022-11-25T09:41:23.010Z,4
2022-11-25T09:42:23.008Z,3
2022-11-25T09:43:23.013Z,3
2022-11-25T09:44:23.086Z,4
2022-11-25T09:45:23.101Z,4
2022-11-25T09:46:23.168Z,4
2022-11-25T09:47:23.061Z,3
2022-11-25T09:48:23.002Z,4
2022-11-25T09:49:23.048Z,5
2022-11-25T09:50:22.999Z,4
2022-11-25T09:51:23.014Z,4
2022-11-25T09:52:23.087Z,4
2022-11-25T09:53:23.043Z,4
2022-11-25T09:54:23.011Z,4
2022-11-25T09:55:23.015Z,4
2022-11-25T09:56:23.082Z,4
2022-11-25T09:57:23.029Z,3
2022-11-25T09:58:23.022Z,4
2022-11-25T09:59:23.093Z,3
2022-11-25T10:00:23.113Z,3
2022-11-25T10:01:23.033Z,3
2022-11-25T10:02:23.130Z,3
2022-11-25T10:03:23.059Z,2
2022-11-25T10:04:23.036Z,2
2022-11-25T10:05:23.029Z,2
2022-11-25T10:06:23.047Z,2
2022-11-25T10:07:23.093Z,2
2022-11-25T10:08:23.112Z,2
2022-11-25T10:09:23.015Z,2
2022-11-25T10:10:23.009Z,2
2022-11-25T10:11:23.035Z,2
2022-11-25T10:12:23.006Z,2
2022-11-25T10:13:23.121Z,2
2022-11-25T10:14:23.020Z,2
2022-11-25T10:15:23.088Z,3
2022-11-25T10:16:23.200Z,3
2022-11-25T10:17:23.010Z,3
2022-11-25T10:18:23.015Z,3
2022-11-25T10:19:23.058Z,2
2022-11-25T10:20:23.016Z,3
2022-11-25T10:21:23.023Z,2
2022-11-25T10:22:23.026Z,2
2022-11-25T10:23:27.780Z,3
2022-11-25T10:24:23.029Z,2
2022-11-25T10:25:23.021Z,2
2022-11-25T10:26:23.021Z,2
2022-11-25T10:27:23.107Z,2
2022-11-25T10:28:23.186Z,3
2022-11-25T10:29:23.225Z,3
2022-11-25T10:30:23.176Z,2
2022-11-25T10:31:23.292Z,3
2022-11-25T10:32:23.371Z,3
2022-11-25T10:33:23.412Z,2
2022-11-25T10:34:23.022Z,3
2022-11-25T10:35:23.033Z,2
2022-11-25T10:36:23.358Z,2
2022-11-25T10:37:23.020Z,3
2022-11-25T10:38:23.097Z,3
2022-11-25T10:39:23.511Z,3
2022-11-25T10:40:23.016Z,3
2022-11-25T10:41:23.021Z,2
2022-11-25T10:42:23.132Z,3
2022-11-25T10:43:26.064Z,3
2022-11-25T10:44:23.029Z,2
2022-11-25T10:45:23.010Z,3
2022-11-25T10:46:23.177Z,3
2022-11-25T10:47:23.076Z,3
2022-11-25T10:48:23.019Z,3
2022-11-25T10:49:23.029Z,3
2022-11-25T10:50:23.018Z,3
2022-11-25T10:51:23.029Z,2
2022-11-25T10:52:23.016Z,3
2022-11-25T10:53:23.091Z,3
2022-11-25T10:54:39.189Z,3
2022-11-25T10:55:23.028Z,3
2022-11-25T10:56:23.033Z,3
2022-11-25T10:57:23.036Z,3
2022-11-25T10:58:23.023Z,3
2022-11-25T10:59:23.121Z,3
2022-11-25T11:00:23.029Z,2
2022-11-25T11:01:23.119Z,3
2022-11-25T11:02:23.142Z,2
2022-11-25T11:03:23.168Z,2
2022-11-25T11:04:23.052Z,2
2022-11-25T11:05:23.033Z,2
2022-11-25T11:06:23.042Z,3
2022-11-25T11:07:23.108Z,2
2022-11-25T11:08:23.036Z,3
2022-11-25T11:09:23.099Z,3
2022-11-25T11:10:23.043Z,3
2022-11-25T11:11:23.037Z,3
2022-11-25T11:12:23.030Z,2
2022-11-25T11:13:23.043Z,3
2022-11-25T11:14:23.059Z,2
2022-11-25T11:15:23.020Z,3
2022-11-25T11:16:23.117Z,13
2022-11-25T11:17:23.076Z,3
2022-11-25T11:18:23.005Z,3
2022-11-25T11:19:23.125Z,3
2022-11-25T11:20:23.008Z,2
2022-11-25T11:21:23.023Z,2
2022-11-25T11:22:23.103Z,3
2022-11-25T11:23:23.034Z,3
2022-11-25T11:24:23.081Z,2
2022-11-25T11:25:23.105Z,2
2022-11-25T11:26:23.014Z,3
2022-11-25T11:27:23.013Z,3
2022-11-25T11:28:23.010Z,3
2022-11-25T11:29:23.030Z,2
2022-11-25T11:30:23.014Z,3
2022-11-25T11:31:23.103Z,3
2022-11-25T11:32:23.078Z,3
2022-11-25T11:33:23.018Z,3
2022-11-25T11:34:23.021Z,3
2022-11-25T11:35:23.019Z,3
2022-11-25T11:36:23.078Z,3
2022-11-25T11:37:23.039Z,3
2022-11-25T11:38:23.019Z,2
2022-11-25T11:39:23.029Z,2
2022-11-25T11:40:23.142Z,2
2022-11-25T11:41:23.028Z,2
2022-11-25T11:42:23.008Z,2
2022-11-25T11:43:23.003Z,2
2022-11-25T11:44:23.021Z,3
2022-11-25T11:45:23.018Z,2
2022-11-25T11:46:23.063Z,2
2022-11-25T11:47:23.106Z,2
2022-11-25T11:48:23.101Z,3
2022-11-25T11:49:26.321Z,3
2022-11-25T11:50:23.010Z,3
2022-11-25T11:51:23.019Z,2
2022-11-25T11:52:23.017Z,2
2022-11-25T11:53:23.129Z,2
2022-11-25T11:54:23.031Z,3
2022-11-25T11:55:23.066Z,3
2022-11-25T11:56:38.549Z,3
2022-11-25T11:57:23.025Z,2
2022-11-25T11:58:23.015Z,2
2022-11-25T11:59:23.036Z,3
2022-11-25T12:00:23.015Z,2
2022-11-25T12:01:23.013Z,2
2022-11-25T12:02:23.125Z,3
2022-11-25T12:03:23.175Z,2
2022-11-25T12:04:23.038Z,2
2022-11-25T12:05:23.010Z,3
2022-11-25T12:06:23.017Z,3
2022-11-25T12:07:23.071Z,2
2022-11-25T12:08:23.070Z,3
2022-11-25T12:09:23.029Z,2
2022-11-25T12:10:23.079Z,3
2022-11-25T12:11:23.116Z,3
2022-11-25T12:12:23.004Z,3
2022-11-25T12:13:23.089Z,3
2022-11-25T12:14:23.078Z,2
2022-11-25T12:15:23.013Z,2
2022-11-25T12:16:23.129Z,2
2022-11-25T12:17:23.065Z,2
2022-11-25T12:18:23.090Z,2
2022-11-25T12:19:23.120Z,2
2022-11-25T12:20:23.095Z,2
2022-11-25T12:21:23.058Z,3
2022-11-25T12:22:23.063Z,3
2022-11-25T12:23:23.070Z,3
2022-11-25T12:24:23.092Z,2
2022-11-25T12:25:23.069Z,2
2022-11-25T12:26:23.077Z,3
2022-11-25T12:27:23.098Z,3
2022-11-25T12:28:23.079Z,3
2022-11-25T12:29:23.097Z,3
2022-11-25T12:30:23.081Z,3
2022-11-25T12:31:23.109Z,3
2022-11-25T12:32:23.076Z,3
2022-11-25T12:33:23.187Z,3
2022-11-25T12:34:23.211Z,3
2022-11-25T12:35:23.131Z,3
2022-11-25T12:36:23.147Z,3
2022-11-25T12:37:23.073Z,3
2022-11-25T12:38:23.084Z,3
2022-11-25T12:39:23.138Z,3
2022-11-25T12:40:23.081Z,4
2022-11-25T12:41:23.090Z,3
2022-11-25T12:42:23.115Z,3
2022-11-25T12:43:23.078Z,3
2022-11-25T12:44:23.083Z,3
2022-11-25T12:45:23.271Z,3
2022-11-25T12:46:23.135Z,4
2022-11-25T12:47:23.081Z,4
2022-11-25T12:48:23.073Z,3
2022-11-25T12:49:23.102Z,3
2022-11-25T12:50:23.117Z,4
2022-11-25T12:51:23.065Z,3
2022-11-25T12:52:23.068Z,3
2022-11-25T12:53:23.081Z,4
2022-11-25T12:54:23.086Z,3
2022-11-25T12:55:23.118Z,4
2022-11-25T12:56:23.073Z,3
2022-11-25T12:57:23.066Z,3
2022-11-25T12:58:23.170Z,3
2022-11-25T12:59:23.084Z,3
2022-11-25T13:00:43.602Z,3
2022-11-25T13:01:23.255Z,3
2022-11-25T13:02:23.140Z,3
2022-11-25T13:03:23.087Z,3
2022-11-25T13:04:23.086Z,3
2022-11-25T13:05:40.208Z,3
2022-11-25T13:06:23.082Z,3
2022-11-25T13:07:23.119Z,3
2022-11-25T13:08:23.082Z,3
2022-11-25T13:09:23.169Z,3
2022-11-25T13:10:23.100Z,3
2022-11-25T13:11:23.452Z,3
2022-11-25T13:12:23.567Z,4
2022-11-25T13:13:23.307Z,3
2022-11-25T13:14:23.402Z,3
2022-11-25T13:15:23.677Z,3
2022-11-25T13:16:23.602Z,3
2022-11-25T13:17:23.395Z,3
2022-11-25T13:18:23.160Z,3
2022-11-25T13:19:23.082Z,3
2022-11-25T13:20:23.092Z,9
2022-11-25T13:21:23.117Z,4
2022-11-25T13:22:23.075Z,4
2022-11-25T13:23:23.092Z,4
2022-11-25T13:24:23.087Z,4
2022-11-25T13:25:23.065Z,3
2022-11-25T13:26:23.099Z,3
2022-11-25T13:27:23.057Z,3
2022-11-25T13:28:23.069Z,3
2022-11-25T13:29:23.138Z,3
2022-11-25T13:30:23.068Z,3
2022-11-25T13:31:23.124Z,3
2022-11-25T13:32:23.074Z,2
2022-11-25T13:33:23.092Z,3
2022-11-25T13:34:23.100Z,3
2022-11-25T13:35:23.068Z,3
2022-11-25T13:36:23.074Z,3
2022-11-25T13:37:23.173Z,2
2022-11-25T13:38:23.078Z,3
2022-11-25T13:39:23.270Z,3
2022-11-25T13:40:23.123Z,3
2022-11-25T13:41:23.351Z,3
2022-11-25T13:42:23.274Z,3
2022-11-25T13:43:23.249Z,3
2022-11-25T13:44:23.201Z,3
2022-11-25T13:45:23.273Z,4
2022-11-25T13:46:23.069Z,3
2022-11-25T13:47:23.071Z,4
2022-11-25T13:48:23.064Z,3
2022-11-25T13:49:23.098Z,3
2022-11-25T13:50:24.456Z,4
2022-11-25T13:51:23.104Z,2
2022-11-25T13:52:23.447Z,3
2022-11-25T13:53:23.108Z,3
2022-11-25T13:54:23.184Z,3
2022-11-25T13:55:23.077Z,3
2022-11-25T13:56:23.066Z,4
2022-11-25T13:57:23.090Z,3
2022-11-25T13:58:23.077Z,4
2022-11-25T13:59:23.111Z,3
2022-11-25T14:00:23.110Z,3
2022-11-25T14:01:28.053Z,3
2022-11-25T14:02:23.162Z,3
2022-11-25T14:03:23.111Z,3
2022-11-25T14:04:23.082Z,3
2022-11-25T14:05:23.083Z,3
2022-11-25T14:06:23.069Z,3
2022-11-25T14:07:23.130Z,3
2022-11-25T14:08:23.095Z,3
2022-11-25T14:09:23.092Z,3
2022-11-25T14:10:23.092Z,3
2022-11-25T14:11:23.067Z,3
2022-11-25T14:12:23.106Z,3
2022-11-25T14:13:23.053Z,3
2022-11-25T14:14:23.111Z,3
2022-11-25T14:15:23.139Z,3
2022-11-25T14:16:23.129Z,4
2022-11-25T14:17:23.065Z,3
2022-11-25T14:18:42.969Z,3
2022-11-25T14:19:51.888Z,3
2022-11-25T14:20:23.125Z,3
2022-11-25T14:21:23.084Z,3
2022-11-25T14:22:23.190Z,3
2022-11-25T14:23:23.255Z,3
2022-11-25T14:24:23.284Z,3
2022-11-25T14:25:23.412Z,3
2022-11-25T14:26:48.342Z,4
2022-11-25T14:27:23.332Z,3
2022-11-25T14:28:23.351Z,3
2022-11-25T14:29:23.326Z,3
2022-11-25T14:30:23.318Z,3
2022-11-25T14:31:23.070Z,3
2022-11-25T14:32:23.084Z,3
2022-11-25T14:33:23.070Z,3
2022-11-25T14:34:23.093Z,3
2022-11-25T14:35:23.090Z,4
2022-11-25T14:36:23.066Z,3
2022-11-25T14:37:23.094Z,3
2022-11-25T14:38:23.119Z,3
2022-11-25T14:39:23.102Z,2
2022-11-25T14:40:23.098Z,3
2022-11-25T14:41:23.117Z,3
2022-11-25T14:42:23.107Z,4
2022-11-25T14:43:23.117Z,3
2022-11-25T14:44:23.123Z,3
2022-11-25T14:45:23.136Z,5
2022-11-25T14:46:23.177Z,3
2022-11-25T14:47:23.116Z,4